Nearby METAR Reports

 

KSFB - Sanford/Orlando, Florida, USA
Distance from station: E 8mi, 12km
Updated: Thu 09/21/17 5:53am EDT
Clear
Clear
 Wind from calm
Wind: Calm
Temperature: 73°F , 23°C
Dew Point: 70°F , 21°C
Humidity: 89%
Barometer: 29.97 inHg , 1014.9 hPa
Clouds: Clear
Visibility: 10 miles , 16 km
2017/09/21 09:53 KSFB 210953Z AUTO 00000KT 10SM CLR 23/21 A2997 RMK AO2 SLP149 T02280211
KORL - Orlando, Florida, USA
Distance from station: S 15mi, 24km
Updated: Thu 09/21/17 5:53am EDT
Clear
Clear
 Wind from calm
Wind: Calm
Temperature: 73°F , 23°C
Dew Point: 72°F , 22°C
Humidity: 94%
Barometer: 29.97 inHg , 1014.9 hPa
Clouds: Clear
Visibility: 10 miles , 16 km
2017/09/21 09:53 KORL 210953Z AUTO 00000KT 10SM CLR 23/22 A2997 RMK AO2 SLP152 T02330222
 
KDED - Deland, Florida, USA
Distance from station: N 21mi, 34km
Updated: Thu 09/21/17 5:55am EDT
Clear
Clear
 Wind from calm
Wind: Calm
Temperature: 70°F , 21°C
Dew Point: 70°F , 21°C
Humidity: 100%
Barometer: 29.98 inHg , 1015.2 hPa
Clouds: Clear
Visibility: 10 miles , 16 km
2017/09/21 09:55 KDED 210955Z AUTO 00000KT 10SM CLR 21/21 A2998 RMK AO2
KMCO - Orlando, Florida, USA
Distance from station: S 24mi, 39km
Updated: Thu 09/21/17 5:53am EDT
Clear
Clear
 Wind from N
Wind: N 3 mph , 6 km/h
Temperature: 73°F , 23°C
Dew Point: 72°F , 22°C
Humidity: 94%
Barometer: 29.98 inHg , 1015.2 hPa
Clouds: Clear
Visibility: 10 miles , 16 km
2017/09/21 09:53 KMCO 210953Z 36003KT 10SM CLR 23/22 A2998 RMK AO2 SLP149 T02280222
 
KLEE - Leesburg, Florida, USA
Distance from station: W 29mi, 47km
Updated: Thu 09/21/17 5:53am EDT
Clear
Clear
 Wind from calm
Wind: Calm
Temperature: 73°F , 23°C
Dew Point: 73°F , 23°C
Humidity: 100%
Barometer: 29.99 inHg , 1015.6 hPa
Clouds: Clear
Visibility: 9 miles , 14 km
2017/09/21 09:53 KLEE 210953Z AUTO 00000KT 9SM CLR 23/23 A2999 RMK AO2 SLP153 T02330228
KEVB - New Smyrna Beach, Florida, USA
Distance from station: NE 31mi, 49km
Updated: Wed 09/20/17 9:50pm EDT
NOT Current
Clear
Clear
 Wind from E
Wind: E 6 mph , 9 km/h
Temperature: 81°F , 27°C
Heat Index: 85°F , 29°C
Dew Point: 72°F , 22°C
Humidity: 74%
Barometer: 30.02 inHg , 1016.6 hPa
Clouds: Clear
Visibility: 10 miles , 16 km
2017/09/21 01:50 KEVB 210150Z 09005KT 10SM SKC 27/22 A3002 RMK LAST
 
KDAB - Daytona Beach, Florida, USA
Distance from station: NNE 33mi, 53km
Updated: Thu 09/21/17 5:53am EDT
Clear
Clear
 Wind from calm
Wind: Calm
Temperature: 73°F , 23°C
Dew Point: 72°F , 22°C
Humidity: 94%
Barometer: 29.98 inHg , 1015.2 hPa
Clouds: Clear
Visibility: 7 miles , 11 km
2017/09/21 09:53 KDAB 210953Z 00000KT 7SM CLR 23/22 A2998 RMK AO2 SLP151 T02280222
KISM - Kissimmee/Orland, Florida, USA
Distance from station: S 34mi, 55km
Updated: Thu 09/21/17 5:56am EDT
Clear
Clear
 Wind from calm
Wind: Calm
Temperature: 73°F , 23°C
Dew Point: 72°F , 22°C
Humidity: 94%
Barometer: 29.99 inHg , 1015.6 hPa
Clouds: Clear
Visibility: 10 miles , 16 km
2017/09/21 09:56 KISM 210956Z AUTO 00000KT 10SM CLR 23/22 A2999 RMK AO2 SLP155 T02330222
 
KTIX - Titusville, Florida, USA
Distance from station: ESE 38mi, 61km
Updated: Wed 09/20/17 8:47pm EDT
NOT Current
Clear
Clear
 Wind from E
Wind: E 7 mph , 11 km/h
Temperature: 82°F , 28°C
Heat Index: 86°F , 30°C
Dew Point: 72°F , 22°C
Humidity: 70%
Barometer: 30.00 inHg , 1015.9 hPa
Clouds: Clear
Visibility: 7 miles , 11 km
2017/09/21 00:47 KTIX 210047Z 08006KT 7SM SKC 28/22 A3000 RMK LAST
KOMN - Ormond Beach Vor, Florida, USA
Distance from station: NNE 39mi, 63km
Updated: Wed 09/20/17 6:50pm EDT
NOT Current
Clear
Clear
 Wind from E
Wind: E 8 mph , 13 km/h
Temperature: 81°F , 27°C
Heat Index: 85°F , 29°C
Dew Point: 72°F , 22°C
Humidity: 74%
Barometer: 29.98 inHg , 1015.2 hPa
Clouds: Clear
Visibility: 7 miles , 11 km
2017/09/20 22:50 KOMN 202250Z 09007KT 7SM SKC 27/22 A2998 RMK LAST
 
KTTS - Nasa Shuttle Fcl, Florida, USA
Distance from station: ESE 39mi, 63km
Updated: Thu 09/21/17 5:58am EDT
Clear
Clear
 Wind from calm
Wind: Calm
Temperature: 72°F , 22°C
Dew Point: 72°F , 22°C
Humidity: 100%
Barometer: 29.96 inHg , 1014.6 hPa
Clouds: Clear
Visibility: 10 miles , 16 km
2017/09/21 09:58 KTTS 210958Z AUTO 00000KT 10SM CLR 22/22 A2996 RMK AO2 DZB25E29 SLP150 P0000 T02150215 VISNO RWY15 CHINO RWY15 $
KVVG - The Villages, Florida, USA
Distance from station: WNW 40mi, 64km
Updated: Thu 09/21/17 5:50am EDT

 Wind from calm
Wind: Calm
Temperature: 72°F , 22°C
Dew Point: 72°F , 22°C
Humidity: 100%
Barometer: 29.89 inHg , 1012.2 hPa
Visibility: 10 miles , 16 km
2017/09/21 09:50 KVVG 210950Z AUTO 00000KT 10SM 22/22 A2989 RMK A01
 
KXMR - Cape Canaveral, Florida, USA
Distance from station: ESE 51mi, 83km
Updated: Thu 09/21/17 5:58am EDT
Mist, Clear
Mist, Clear
 Wind from calm
Wind: Calm
Temperature: 73°F , 23°C
Dew Point: 70°F , 21°C
Humidity: 89%
Barometer: 29.95 inHg , 1014.2 hPa
Summary: Mist
Clouds: Clear
Visibility: 5 miles , 8 km
2017/09/21 09:58 KXMR 210958Z AUTO 00000KT 5SM R13/4500FT BR CLR 23/21 A2995 RMK AO2 SLP145 $
KGIF - Winter Haven, Florida, USA
Distance from station: SSW 55mi, 88km
Updated: Thu 09/21/17 5:53am EDT
Clear
Clear
 Wind from ENE
Wind: ENE 3 mph , 6 km/h
Temperature: 73°F , 23°C
Dew Point: 72°F , 22°C
Humidity: 94%
Barometer: 29.99 inHg , 1015.6 hPa
Clouds: Clear
Visibility: 10 miles , 16 km
2017/09/21 09:53 KGIF 210953Z AUTO 07003KT 10SM CLR 23/22 A2999 RMK AO2 SLP152 T02280217
 
KCOF - Patrick Afb/Coco, Florida, USA
Distance from station: SE 58mi, 94km
Updated: Thu 09/21/17 5:55am EDT
Few Clouds
Few Clouds
 Wind from ENE
Wind: ENE 3 mph , 6 km/h
Temperature: 79°F , 26°C
Dew Point: 73°F , 23°C
Humidity: 84%
Barometer: 29.95 inHg , 1014.2 hPa
Clouds: Few Clouds
Visibility: 10 miles , 16 km
Cloud details: Few Clouds 2000 ft
2017/09/21 09:55 KCOF 210955Z 07003KT 10SM FEW020 26/23 A2995 RMK A02A SLP149 WND DATA ESTMD ALSTG/SLP ESTMD $
KINF - Inverness, Florida, USA
Distance from station: W 59mi, 95km
Updated: Thu 09/21/17 6:15am EDT
Mist, Clear
Mist, Clear
 Wind from calm
Wind: Calm
Temperature: 66°F , 19°C
Dew Point: 66°F , 19°C
Humidity: 100%
Barometer: 29.99 inHg , 1015.6 hPa
Summary: Mist
Clouds: Clear
Visibility: 5 miles , 8 km
2017/09/21 10:15 KINF 211015Z AUTO 00000KT 5SM BR CLR 19/19 A2999 RMK AO2
 
KOCF - Ocala Muni, Florida, USA
Distance from station: WNW 60mi, 96km
Updated: Thu 09/21/17 5:51am EDT
Partly cloudy
Partly cloudy
 Wind from calm
Wind: Calm
Temperature: 70°F , 21°C
Dew Point: 70°F , 21°C
Humidity: 100%
Barometer: 30.00 inHg , 1015.9 hPa
Clouds: Partly cloudy
Visibility: 7 miles , 11 km
Cloud details: Partly cloudy 5500 ft
2017/09/21 09:51 KOCF 210951Z AUTO 00000KT 7SM SCT055 21/21 A3000 RMK AO2 SLP160 T02060206 $
KZPH - Zephyrhills, Florida, USA
Distance from station: SW 61mi, 99km
Updated: Thu 09/21/17 6:15am EDT
Mist, Clear
Mist, Clear
 Wind from calm
Wind: Calm
Temperature: 68°F , 20°C
Dew Point: 68°F , 20°C
Humidity: 100%
Barometer: 29.98 inHg , 1015.2 hPa
Summary: Mist
Clouds: Clear
Visibility: 2 miles , 3 km
2017/09/21 10:15 KZPH 211015Z AUTO 00000KT 2SM BR CLR 20/20 A2998 RMK AO2 VIS 1V4 T02010200
 
KMLB - Melbourne, Florida, USA
Distance from station: SE 62mi, 100km
Updated: Thu 09/21/17 5:53am EDT
Clear
Clear
 Wind from NNW
Wind: NNW 3 mph , 6 km/h
Temperature: 73°F , 23°C
Dew Point: 72°F , 22°C
Humidity: 94%
Barometer: 29.96 inHg , 1014.6 hPa
Clouds: Clear
Visibility: 10 miles , 16 km
2017/09/21 09:53 KMLB 210953Z AUTO 33003KT 10SM CLR 23/22 A2996 RMK AO2 SLP143 T02330217
KBOW - Bartow Municipal, Florida, USA
Distance from station: SSW 63mi, 102km
Updated: Sun 09/10/17 11:55pm EDT
NOT Current

 
2017/09/11 03:55 KBOW 110355Z AUTO RMK AO2 PNO PWINO FZRANO TSNO